Time;durP1;ratioP1;P1;durP2;ratioP2;P2;SDS_P1;SDS_P2;PMS_P1;PMS_P2;Temp;Humidity;BMP_temperature;BMP_pressure;BME280_temperature;BME280_humidity;BME280_pressure;Samples;Min_cycle;Max_cycle;Signal;HPM_P1;HPM_P2
2023/05/03 00:00:12;;;;;;;13.67;5.20;;;;;;;-145.69;100.00;52509.75;5096365;28;20206;-83
2023/05/03 00:02:43;;;;;;;14.17;4.77;;;;;;;-145.69;100.00;52472.13;5096420;28;20243;-83
2023/05/03 00:05:12;;;;;;;13.13;5.23;;;;;;;-145.69;100.00;52480.03;5096625;28;20268;-84
2023/05/03 00:07:39;;;;;;;11.30;4.67;;;;;;;-145.69;100.00;52515.69;5096100;28;20244;-82
2023/05/03 00:10:09;;;;;;;16.37;6.07;;;;;;;-145.69;100.00;52503.81;5096379;28;20198;-83
2023/05/03 00:12:35;;;;;;;15.53;6.07;;;;;;;-145.69;100.00;52507.75;5096158;28;20247;-83
2023/05/03 00:15:02;;;;;;;15.80;5.40;;;;;;;-145.69;100.00;52523.59;5096079;28;20226;-83
2023/05/03 00:17:28;;;;;;;19.33;6.73;;;;;;;-145.69;100.00;52523.59;5096079;28;20316;-82
2023/05/03 00:19:56;;;;;;;16.80;5.90;;;;;;;-145.69;100.00;52495.88;5096380;28;20202;-84
2023/05/03 00:22:26;;;;;;;14.47;5.30;;;;;;;-145.69;100.00;52450.31;5096741;28;20198;-83
2023/05/03 00:24:52;;;;;;;14.20;5.67;;;;;;;-145.69;100.00;52513.69;5096252;28;20206;-83
2023/05/03 00:27:21;;;;;;;19.63;5.80;;;;;;;-145.69;100.00;52478.06;5095822;28;20186;-84
2023/05/03 00:29:50;;;;;;;15.40;6.70;;;;;;;-145.69;100.00;52517.66;5095867;28;20209;-84
2023/05/03 00:32:16;;;;;;;13.70;5.17;;;;;;;-145.69;100.00;52509.75;5095838;28;20847;-84
2023/05/03 00:34:43;;;;;;;16.10;6.27;;;;;;;-145.69;100.00;52503.81;5096169;28;20198;-83
2023/05/03 00:37:11;;;;;;;14.37;5.63;;;;;;;-145.69;100.00;52495.88;5095851;28;20190;-84
2023/05/03 00:39:37;;;;;;;18.67;6.30;;;;;;;-145.69;100.00;52487.97;5095160;28;20206;-84
2023/05/03 00:42:04;;;;;;;18.83;6.00;;;;;;;-145.69;100.00;52535.47;5095412;28;20568;-83
2023/05/03 00:44:30;;;;;;;14.67;6.10;;;;;;;-145.69;100.00;52527.56;5095659;28;20213;-83
2023/05/03 00:47:00;;;;;;;16.87;6.00;;;;;;;-145.69;100.00;52499.84;5095574;28;20198;-83
2023/05/03 00:49:27;;;;;;;14.13;5.57;;;;;;;-145.69;100.00;52501.81;5095626;28;20194;-83
2023/05/03 00:51:53;;;;;;;13.23;5.70;;;;;;;-145.69;100.00;52499.84;5095747;28;20202;-83
2023/05/03 00:54:22;;;;;;;19.97;6.27;;;;;;;-145.69;100.00;52515.69;5095468;28;20599;-83
2023/05/03 00:56:49;;;;;;;19.20;6.27;;;;;;;-145.69;100.00;52579.06;5095540;28;20236;-84
2023/05/03 00:59:15;;;;;;;17.00;6.40;;;;;;;-145.69;100.00;52476.06;5095440;28;20731;-84
2023/05/03 01:01:42;;;;;;;22.80;7.37;;;;;;;-145.69;100.00;52505.78;5095575;28;20285;-84
2023/05/03 01:04:09;;;;;;;19.47;6.63;;;;;;;-145.69;100.00;52523.59;5095282;28;20705;-85
2023/05/03 01:06:44;;;;;;;19.47;6.07;;;;;;;-145.69;100.00;52489.94;5095529;28;20667;-85
2023/05/03 01:09:18;;;;;;;14.63;5.83;;;;;;;-145.69;100.00;52493.91;5094988;28;20777;-85
2023/05/03 01:11:54;;;;;;;16.30;5.93;;;;;;;-145.69;100.00;52454.28;5075310;28;20202;-85
2023/05/03 01:14:28;;;;;;;19.93;6.63;;;;;;;-145.69;100.00;52493.91;5075517;28;20217;-84
2023/05/03 01:17:04;;;;;;;17.33;6.10;;;;;;;-145.69;100.00;52519.63;5075517;28;20558;-86
2023/05/03 01:19:36;;;;;;;22.17;7.47;;;;;;;-145.69;100.00;52523.59;5082470;28;20221;-85
2023/05/03 01:22:14;;;;;;;27.23;7.07;;;;;;;-145.69;100.00;52507.75;5095111;28;20206;-84
2023/05/03 01:24:43;;;;;;;16.53;5.73;;;;;;;-145.69;100.00;52507.75;5095173;28;20209;-84
2023/05/03 01:27:11;;;;;;;22.40;8.32;;;;;;;-145.69;100.00;52531.53;5093291;28;20436;-83
2023/05/03 01:29:37;;;;;;;24.30;6.63;;;;;;;-145.69;100.00;52507.75;5094848;28;20194;-84
2023/05/03 01:32:09;;;;;;;16.93;5.63;;;;;;;-145.69;100.00;52533.50;5094955;28;20209;-84
2023/05/03 01:34:42;;;;;;;18.27;6.53;;;;;;;-145.69;100.00;52535.47;5094852;28;20198;-83
2023/05/03 01:37:11;;;;;;;18.20;6.47;;;;;;;-145.69;100.00;52499.84;5094984;28;20209;-84
2023/05/03 01:39:43;;;;;;;19.10;6.40;;;;;;;-145.69;100.00;52543.41;5094783;28;20307;-84
2023/05/03 01:42:14;;;;;;;20.67;6.73;;;;;;;-145.69;100.00;52523.59;5094251;28;20186;-84
2023/05/03 01:44:42;;;;;;;19.67;6.87;;;;;;;-145.69;100.00;52547.38;5094451;28;20267;-84
2023/05/03 01:47:09;;;;;;;22.23;7.20;;;;;;;-145.69;100.00;52588.97;5094825;28;20202;-84
2023/05/03 01:49:40;;;;;;;26.97;8.17;;;;;;;-145.69;100.00;52543.41;5090466;28;20202;-85
2023/05/03 01:52:06;;;;;;;19.67;7.10;;;;;;;-145.69;100.00;52507.75;5094440;28;20302;-85
2023/05/03 01:54:33;;;;;;;27.83;8.20;;;;;;;-145.69;100.00;52515.69;5094769;28;20209;-84
2023/05/03 01:57:00;;;;;;;28.53;8.27;;;;;;;-145.69;100.00;52484.00;5094664;28;20202;-84
2023/05/03 01:59:28;;;;;;;23.23;8.07;;;;;;;-145.69;100.00;52507.75;5094260;28;20225;-85
2023/05/03 02:01:57;;;;;;;27.77;7.47;;;;;;;-145.69;100.00;52519.63;5094348;28;20553;-84
2023/05/03 02:04:24;;;;;;;20.63;7.07;;;;;;;-145.69;100.00;52507.75;5094246;28;20237;-84
2023/05/03 02:06:50;;;;;;;17.43;6.33;;;;;;;-145.69;100.00;52503.81;5094397;28;20220;-84
2023/05/03 02:09:17;;;;;;;18.13;6.00;;;;;;;-145.69;100.00;52484.00;5094170;28;20199;-84
2023/05/03 02:11:43;;;;;;;16.13;5.87;;;;;;;-145.69;100.00;52519.63;5094242;28;20198;-84
2023/05/03 02:14:16;;;;;;;20.47;6.27;;;;;;;-145.69;100.00;52535.47;5094319;28;20286;-84
2023/05/03 02:16:43;;;;;;;20.73;7.17;;;;;;;-145.69;100.00;52517.66;5094018;28;20206;-83
2023/05/03 02:19:10;;;;;;;27.43;7.23;;;;;;;-145.69;100.00;52505.78;5093785;28;20222;-83
2023/05/03 02:21:37;;;;;;;18.93;6.80;;;;;;;-145.69;100.00;52521.63;5093729;28;20197;-83
2023/05/03 02:24:04;;;;;;;22.37;7.37;;;;;;;-145.69;100.00;52531.53;5093994;28;20190;-83
2023/05/03 02:26:31;;;;;;;24.70;7.63;;;;;;;-145.69;100.00;52563.22;5093718;28;20209;-83
2023/05/03 02:28:58;;;;;;;26.00;7.47;;;;;;;-145.69;100.00;52521.63;5093963;28;20201;-84
2023/05/03 02:31:25;;;;;;;25.63;8.33;;;;;;;-145.69;100.00;52535.47;5093586;28;20285;-83
2023/05/03 02:33:53;;;;;;;37.33;9.73;;;;;;;-145.69;100.00;52509.75;5093677;28;20255;-84
2023/05/03 02:36:20;;;;;;;36.37;9.73;;;;;;;-145.69;100.00;52507.75;5093353;28;20205;-83
2023/05/03 02:38:47;;;;;;;26.40;8.40;;;;;;;-145.69;100.00;52491.91;5093431;28;20229;-82
2023/05/03 02:41:13;;;;;;;27.30;8.17;;;;;;;-145.69;100.00;52503.81;5093544;28;20213;-82
2023/05/03 02:43:39;;;;;;;25.23;6.80;;;;;;;-145.69;100.00;52551.31;5093813;28;20213;-83
2023/05/03 02:46:06;;;;;;;21.07;6.93;;;;;;;-145.69;100.00;52531.53;5093633;28;20201;-83
2023/05/03 02:48:32;;;;;;;33.97;9.40;;;;;;;-145.69;100.00;52535.47;5093537;28;20202;-83
2023/05/03 02:51:00;;;;;;;30.70;9.17;;;;;;;-145.69;100.00;52489.94;5093230;28;20221;-82
2023/05/03 02:53:27;;;;;;;32.07;9.07;;;;;;;-145.69;100.00;52527.56;5093096;28;20194;-82
2023/05/03 02:55:53;;;;;;;35.17;9.13;;;;;;;-145.69;100.00;52547.38;5092683;28;20220;-83
2023/05/03 02:58:20;;;;;;;30.27;9.00;;;;;;;-145.69;100.00;52523.59;5093279;28;20221;-83
2023/05/03 03:00:46;;;;;;;30.27;7.90;;;;;;;-145.69;100.00;52499.84;5092921;28;20640;-82
2023/05/03 03:03:13;;;;;;;27.40;8.13;;;;;;;-145.69;100.00;52491.91;5092795;28;20221;-83
2023/05/03 03:05:39;;;;;;;23.43;8.50;;;;;;;-145.69;100.00;52527.56;5093168;28;20194;-84
2023/05/03 03:08:07;;;;;;;26.10;7.77;;;;;;;-145.69;100.00;52515.69;5093281;28;20208;-83
2023/05/03 03:10:33;;;;;;;31.83;8.90;;;;;;;-145.69;100.00;52519.63;5093142;28;20686;-82
2023/05/03 03:13:00;;;;;;;26.27;8.33;;;;;;;-145.69;100.00;52537.47;5092357;28;20197;-83
2023/05/03 03:15:26;;;;;;;28.43;7.97;;;;;;;-145.69;100.00;52501.81;5073149;28;20198;-84
2023/05/03 03:17:56;;;;;;;35.57;9.50;;;;;;;-145.69;100.00;52527.56;5082860;28;20197;-83
2023/05/03 03:20:22;;;;;;;39.87;9.50;;;;;;;-145.69;100.00;52515.69;5092871;28;20233;-83
2023/05/03 03:22:49;;;;;;;42.40;10.10;;;;;;;-145.69;100.00;52499.84;5092810;28;20190;-83
2023/05/03 03:25:17;;;;;;;33.93;10.00;;;;;;;-145.69;100.00;52507.75;5093187;28;20224;-84
2023/05/03 03:27:43;;;;;;;30.47;8.60;;;;;;;-145.69;100.00;52511.72;5093210;28;20221;-83
2023/05/03 03:30:10;;;;;;;42.67;10.67;;;;;;;-145.69;100.00;52519.63;5093118;28;20220;-83
2023/05/03 03:32:37;;;;;;;50.43;12.70;;;;;;;-145.69;100.00;52567.16;5093094;28;20283;-84
2023/05/03 03:35:03;;;;;;;38.70;11.07;;;;;;;-145.69;100.00;52531.53;5092608;28;20198;-84
2023/05/03 03:37:30;;;;;;;47.92;14.25;;;;;;;-145.69;100.00;52543.41;5092647;28;20444;-84
2023/05/03 03:39:57;;;;;;;41.83;11.87;;;;;;;-145.69;100.00;52539.44;5093167;28;20229;-84
2023/05/03 03:42:24;;;;;;;45.60;11.50;;;;;;;-145.69;100.00;52531.53;5092967;28;20222;-84
2023/05/03 03:44:53;;;;;;;53.47;13.47;;;;;;;-145.69;100.00;52539.44;5093064;28;20198;-84
2023/05/03 03:47:20;;;;;;;59.10;12.33;;;;;;;-145.69;100.00;52543.41;5089605;28;20201;-84
2023/05/03 03:49:47;;;;;;;30.60;10.00;;;;;;;-145.69;100.00;52539.44;5092454;28;20226;-84
2023/05/03 03:52:13;;;;;;;35.80;9.90;;;;;;;-145.69;100.00;52519.63;5092989;28;20190;-84
2023/05/03 03:54:40;;;;;;;43.50;10.70;;;;;;;-145.69;100.00;52555.28;5092535;28;20186;-84
2023/05/03 03:57:06;;;;;;;41.50;9.97;;;;;;;-145.69;100.00;52503.81;5092081;28;20202;-84
2023/05/03 03:59:34;;;;;;;39.00;10.43;;;;;;;-145.69;100.00;52519.63;5092186;28;20217;-84
2023/05/03 04:02:01;;;;;;;37.17;9.23;;;;;;;-145.69;100.00;52543.41;5092951;28;20212;-84
2023/05/03 04:04:27;;;;;;;30.00;8.83;;;;;;;-145.69;100.00;52527.56;5092773;28;20236;-85
2023/05/03 04:06:53;;;;;;;34.47;9.77;;;;;;;-145.69;100.00;52525.59;5092938;28;20206;-84
2023/05/03 04:09:20;;;;;;;47.37;11.27;;;;;;;-145.69;100.00;52543.41;5092747;28;20206;-84
2023/05/03 04:11:47;;;;;;;42.03;10.60;;;;;;;-145.69;100.00;52525.59;5092815;28;20233;-85
2023/05/03 04:14:13;;;;;;;46.93;11.93;;;;;;;-145.69;100.00;52535.47;5092430;28;20198;-83
2023/05/03 04:16:41;;;;;;;43.17;10.80;;;;;;;-145.69;100.00;52505.78;5095779;28;20225;-84
2023/05/03 04:19:07;;;;;;;35.20;9.97;;;;;;;-145.69;100.00;52513.69;5096734;28;20638;-84
2023/05/03 04:21:34;;;;;;;45.07;10.93;;;;;;;-145.69;100.00;52559.25;5096763;28;20206;-85
2023/05/03 04:24:05;;;;;;;62.53;17.13;;;;;;;-145.69;100.00;52553.31;5095464;28;20448;-85
2023/05/03 04:26:31;;;;;;;50.20;13.17;;;;;;;-145.69;100.00;52521.63;5096422;28;20226;-84
2023/05/03 04:28:58;;;;;;;49.97;12.80;;;;;;;-145.69;100.00;52533.50;5096457;28;20199;-84
2023/05/03 04:31:25;;;;;;;70.87;16.60;;;;;;;-145.69;100.00;52531.53;5096408;28;20197;-85
2023/05/03 04:33:53;;;;;;;54.57;12.63;;;;;;;-145.69;100.00;52543.41;5096437;28;20603;-84
2023/05/03 04:36:24;;;;;;;39.63;10.97;;;;;;;-145.69;100.00;52555.28;5096014;28;20206;-85
2023/05/03 04:38:51;;;;;;;42.97;10.90;;;;;;;-145.69;100.00;52527.56;5095986;28;20618;-85
2023/05/03 04:41:17;;;;;;;40.53;10.73;;;;;;;-145.69;100.00;52482.00;5096506;28;20205;-84
2023/05/03 04:43:44;;;;;;;57.87;13.97;;;;;;;-145.69;100.00;52505.78;5095651;28;20644;-84
2023/05/03 04:46:10;;;;;;;53.73;13.73;;;;;;;-145.69;100.00;52503.81;5096041;28;20653;-84
2023/05/03 04:48:37;;;;;;;44.57;12.27;;;;;;;-145.69;100.00;52523.59;5095863;28;20193;-84
2023/05/03 04:51:05;;;;;;;38.93;10.77;;;;;;;-145.69;100.00;52515.69;5095934;28;20202;-85
2023/05/03 04:53:31;;;;;;;39.47;11.67;;;;;;;-145.69;100.00;52539.44;5095730;28;20649;-84
2023/05/03 04:55:58;;;;;;;43.43;11.40;;;;;;;-145.69;100.00;52515.69;5095425;28;20649;-84
2023/05/03 04:58:24;;;;;;;30.33;9.83;;;;;;;-145.69;100.00;52535.47;5095610;28;20684;-84
2023/05/03 05:00:51;;;;;;;35.00;10.63;;;;;;;-145.69;100.00;52509.75;5095379;28;20226;-84
2023/05/03 05:03:17;;;;;;;38.43;11.40;;;;;;;-145.69;100.00;52527.56;5095393;28;20202;-83
2023/05/03 05:05:45;;;;;;;41.57;11.60;;;;;;;-145.69;100.00;52541.44;5095343;28;20201;-84
2023/05/03 05:08:12;;;;;;;36.40;10.20;;;;;;;-145.69;100.00;52509.75;5095413;28;20202;-84
2023/05/03 05:10:41;;;;;;;35.37;9.83;;;;;;;-145.69;100.00;52482.00;5095041;28;20285;-83
2023/05/03 05:13:07;;;;;;;28.13;9.27;;;;;;;-145.69;100.00;52539.44;5094917;28;20209;-84
2023/05/03 05:15:34;;;;;;;30.93;9.33;;;;;;;-145.69;100.00;52501.81;5095425;28;20541;-83
2023/05/03 05:18:01;;;;;;;35.00;9.97;;;;;;;-145.69;100.00;52484.00;5095046;28;20206;-84
2023/05/03 05:20:27;;;;;;;27.83;9.17;;;;;;;-145.69;100.00;52535.47;5095171;28;20230;-84
2023/05/03 05:22:53;;;;;;;24.40;9.00;;;;;;;-145.69;100.00;52511.72;5094901;28;20209;-84
2023/05/03 05:25:21;;;;;;;28.03;9.57;;;;;;;-145.69;100.00;52480.03;5094437;28;20225;-84
2023/05/03 05:27:48;;;;;;;34.07;11.57;;;;;;;-145.69;100.00;52511.72;5094140;28;20649;-83
2023/05/03 05:30:15;;;;;;;34.77;10.73;;;;;;;-145.69;100.00;52487.97;5094994;28;20228;-84
2023/05/03 05:32:41;;;;;;;29.37;9.83;;;;;;;-145.69;100.00;52531.53;5094973;28;20244;-85
2023/05/03 05:35:08;;;;;;;25.73;9.43;;;;;;;-145.69;100.00;52541.44;5094230;28;20599;-83
2023/05/03 05:37:35;;;;;;;35.17;10.40;;;;;;;-145.69;100.00;52519.63;5094799;28;20202;-83
2023/05/03 05:40:02;;;;;;;34.00;11.43;;;;;;;-145.69;100.00;52507.75;5094592;28;20237;-83
2023/05/03 05:42:30;;;;;;;44.53;13.03;;;;;;;-145.69;100.00;52523.59;5094445;28;20251;-85
2023/05/03 05:44:57;;;;;;;41.73;13.23;;;;;;;-145.69;100.00;52484.00;5094806;28;20561;-84
2023/05/03 05:47:23;;;;;;;47.47;17.38;;;;;;;-145.69;100.00;52491.91;5093645;28;20593;-85
2023/05/03 05:49:50;;;;;;;51.10;15.80;;;;;;;-145.69;100.00;52511.72;5094429;28;20206;-85
2023/05/03 05:52:16;;;;;;;34.73;13.13;;;;;;;-145.69;100.00;52480.03;5094346;28;20201;-85
2023/05/03 05:54:43;;;;;;;26.50;10.93;;;;;;;-145.69;100.00;52497.84;5094462;28;20696;-85
2023/05/03 05:57:09;;;;;;;30.30;12.07;;;;;;;-145.69;100.00;52517.66;5094226;28;20267;-86
2023/05/03 05:59:38;;;;;;;28.27;11.00;;;;;;;-145.69;100.00;52525.59;5094820;28;20245;-86
2023/05/03 06:02:04;;;;;;;28.90;11.13;;;;;;;-145.69;100.00;52503.81;5094758;28;20243;-85
2023/05/03 06:04:31;;;;;;;28.47;11.83;;;;;;;-145.69;100.00;52472.13;5094460;28;20222;-85
2023/05/03 06:06:57;;;;;;;31.77;11.93;;;;;;;-145.69;100.00;52511.72;5094683;28;20217;-86
2023/05/03 06:09:24;;;;;;;26.00;11.43;;;;;;;-145.69;100.00;52472.13;5094393;28;20205;-85
2023/05/03 06:11:50;;;;;;;26.53;11.50;;;;;;;-145.69;100.00;52480.03;5094330;28;20202;-85
2023/05/03 06:14:18;;;;;;;24.97;11.13;;;;;;;-145.69;100.00;52444.38;5094336;28;20618;-85
2023/05/03 06:16:46;;;;;;;25.03;10.23;;;;;;;-145.69;100.00;52462.22;5094385;28;20205;-85
2023/05/03 06:19:12;;;;;;;26.40;11.10;;;;;;;-145.69;100.00;52480.03;5094115;28;20657;-86
2023/05/03 06:21:39;;;;;;;24.30;11.07;;;;;;;-145.69;100.00;52499.84;5094064;28;20237;-86
2023/05/03 06:24:06;;;;;;;26.90;10.60;;;;;;;-145.69;100.00;52468.16;5094019;28;20219;-84
2023/05/03 06:26:32;;;;;;;25.90;11.30;;;;;;;-145.69;100.00;52474.09;5094104;28;20651;-85
2023/05/03 06:28:59;;;;;;;24.13;10.67;;;;;;;-145.69;100.00;52478.06;5093609;28;20198;-83
2023/05/03 06:31:26;;;;;;;24.93;11.33;;;;;;;-145.69;100.00;52501.81;5093871;28;20212;-85
2023/05/03 06:33:53;;;;;;;20.97;10.27;;;;;;;-145.69;100.00;52515.69;5093769;28;20205;-85
2023/05/03 06:36:20;;;;;;;28.23;11.80;;;;;;;-145.69;100.00;52495.88;5093333;28;20206;-85
2023/05/03 06:38:47;;;;;;;27.47;12.03;;;;;;;-145.69;100.00;52480.03;5093580;28;20591;-86
2023/05/03 06:41:13;;;;;;;25.13;11.20;;;;;;;-145.69;100.00;52468.16;5094462;28;20569;-84
2023/05/03 06:43:40;;;;;;;26.13;11.73;;;;;;;-145.69;100.00;52480.03;5093926;28;20657;-85
2023/05/03 06:46:06;;;;;;;24.63;11.43;;;;;;;-145.69;100.00;52501.81;5093690;28;20198;-84
2023/05/03 06:48:33;;;;;;;26.33;11.17;;;;;;;-145.69;100.00;52487.97;5093618;28;20198;-83
2023/05/03 06:51:00;;;;;;;21.43;10.57;;;;;;;-145.69;100.00;52452.31;5093203;28;20209;-84
2023/05/03 06:53:27;;;;;;;21.47;10.77;;;;;;;-145.69;100.00;52501.81;5093738;28;20198;-83
2023/05/03 06:55:54;;;;;;;20.23;9.70;;;;;;;-145.69;100.00;52474.09;5092943;28;20631;-83
2023/05/03 06:58:21;;;;;;;24.83;11.10;;;;;;;-145.69;100.00;52476.06;5093318;28;20656;-83
2023/05/03 07:00:51;;;;;;;24.63;11.03;;;;;;;-145.69;100.00;52493.91;5093118;28;20342;-83
2023/05/03 07:03:17;;;;;;;21.57;10.27;;;;;;;-145.69;100.00;52458.25;5092918;28;20198;-83
2023/05/03 07:05:45;;;;;;;21.43;10.80;;;;;;;-145.69;100.00;52432.50;5092750;28;20198;-83
2023/05/03 07:08:13;;;;;;;24.63;10.77;;;;;;;-145.69;100.00;52450.31;5092916;28;20201;-83
2023/05/03 07:10:40;;;;;;;24.30;10.13;;;;;;;-145.69;100.00;52476.06;5093308;28;20201;-83
2023/05/03 07:13:07;;;;;;;22.57;10.03;;;;;;;-145.69;100.00;52442.41;5093547;28;20201;-83
2023/05/03 07:15:33;;;;;;;20.23;9.60;;;;;;;-145.69;100.00;52497.84;5093098;28;20198;-83
2023/05/03 07:18:00;;;;;;;20.63;8.93;;;;;;;-145.69;100.00;52484.00;5092368;28;20205;-84
2023/05/03 07:20:26;;;;;;;20.13;9.80;;;;;;;-145.69;100.00;52462.22;5092961;28;20226;-84
2023/05/03 07:22:52;;;;;;;21.87;9.30;;;;;;;-145.69;100.00;52480.03;5092952;28;20240;-83
2023/05/03 07:25:20;;;;;;;19.30;9.03;;;;;;;-145.69;100.00;52458.25;5093338;28;20683;-84
2023/05/03 07:27:47;;;;;;;17.87;8.93;;;;;;;-145.69;100.00;52456.28;5093107;28;21278;-84
2023/05/03 07:30:14;;;;;;;18.17;8.13;;;;;;;-145.69;100.00;52464.19;5093315;28;20205;-84
2023/05/03 07:32:40;;;;;;;20.63;9.30;;;;;;;-145.69;100.00;52456.28;5092977;28;20225;-84
2023/05/03 07:35:07;;;;;;;19.37;8.90;;;;;;;-145.69;100.00;52478.06;5092982;28;20553;-84
2023/05/03 07:37:34;;;;;;;22.30;9.43;;;;;;;-145.69;100.00;52444.38;5093643;28;20625;-83
2023/05/03 07:40:00;;;;;;;20.77;9.33;;;;;;;-145.69;100.00;52452.31;5093197;28;20225;-82
2023/05/03 07:42:28;;;;;;;17.63;9.57;;;;;;;-145.69;100.00;52460.22;5092847;28;20194;-84
2023/05/03 07:44:54;;;;;;;17.80;9.20;;;;;;;-145.69;100.00;52440.44;5094089;28;20198;-83
2023/05/03 07:47:21;;;;;;;23.00;10.90;;;;;;;-145.69;100.00;52466.16;5092555;28;20198;-84
2023/05/03 07:49:49;;;;;;;19.77;9.10;;;;;;;-145.69;100.00;52458.25;5095525;28;20201;-83
2023/05/03 07:52:16;;;;;;;23.10;10.43;;;;;;;-145.69;100.00;52440.44;5097325;28;20660;-84
2023/05/03 07:54:44;;;;;;;18.23;9.83;;;;;;;-145.69;100.00;52418.63;5097445;28;20201;-84
2023/05/03 07:57:11;;;;;;;19.80;10.13;;;;;;;-145.69;100.00;52440.44;5096747;28;20205;-84
2023/05/03 07:59:38;;;;;;;21.40;9.85;;;;;;;-145.69;100.00;52424.59;5096992;28;20202;-85
2023/05/03 08:02:05;;;;;;;20.52;9.32;;;;;;;-145.69;100.00;52426.56;5096060;28;20201;-84
2023/05/03 08:04:32;;;;;;;18.77;9.40;;;;;;;-145.69;100.00;52373.09;5091973;28;20234;-83
2023/05/03 08:07:00;;;;;;;19.35;10.55;;;;;;;-145.69;100.00;52412.69;5096603;28;20208;-84
2023/05/03 08:09:27;;;;;;;19.20;10.00;;;;;;;-145.69;100.00;52396.84;5096343;28;20205;-84
2023/05/03 08:11:54;;;;;;;17.83;9.82;;;;;;;-145.69;100.00;52396.84;5096534;28;20236;-83
2023/05/03 08:14:21;;;;;;;20.00;10.60;;;;;;;-145.69;100.00;52400.81;5096246;28;20470;-83
2023/05/03 08:16:49;;;;;;;21.47;11.20;;;;;;;-145.69;100.00;52377.06;5096798;28;20259;-81
2023/05/03 08:19:15;;;;;;;17.40;9.15;;;;;;;-145.69;100.00;52392.91;5096002;28;20190;-81
2023/05/03 08:21:42;;;;;;;18.58;8.80;;;;;;;-145.69;100.00;52434.47;5096355;28;20229;-83
2023/05/03 08:24:09;;;;;;;20.45;10.35;;;;;;;-145.69;100.00;52402.78;5096636;28;20202;-82
2023/05/03 08:26:36;;;;;;;19.47;9.90;;;;;;;-145.69;100.00;52428.53;5096307;28;20680;-83
2023/05/03 08:29:02;;;;;;;20.50;10.20;;;;;;;-145.69;100.00;52398.84;5096512;28;20265;-81
2023/05/03 08:31:30;;;;;;;18.27;10.27;;;;;;;-145.69;100.00;52420.63;5096035;28;20202;-80
2023/05/03 08:33:57;;;;;;;18.93;10.47;;;;;;;-145.69;100.00;52420.63;5094158;28;20191;-84
2023/05/03 08:36:24;;;;;;;22.33;10.50;;;;;;;-145.69;100.00;52442.41;5095967;28;20213;-83
2023/05/03 08:38:51;;;;;;;18.70;10.30;;;;;;;-145.69;100.00;52398.84;5095841;28;20198;-83
2023/05/03 08:41:22;;;;;;;18.48;9.38;;;;;;;-145.69;100.00;52400.81;5095753;28;20222;-80
2023/05/03 08:43:52;;;;;;;22.77;11.23;;;;;;;-145.69;100.00;52388.94;5096127;28;20202;-83
2023/05/03 08:46:18;;;;;;;22.20;11.00;;;;;;;-145.69;100.00;52428.53;5096258;28;20220;-82
2023/05/03 08:48:47;;;;;;;20.40;11.00;;;;;;;-145.69;100.00;52408.75;5096036;28;20208;-83
2023/05/03 08:51:16;;;;;;;20.27;10.27;;;;;;;-145.69;100.00;52369.13;5096226;28;20198;-83
2023/05/03 08:53:43;;;;;;;16.83;9.68;;;;;;;-145.69;100.00;52416.66;5095836;28;20198;-84
2023/05/03 08:56:11;;;;;;;18.17;10.23;;;;;;;-145.69;100.00;52442.41;5095829;28;20202;-84
2023/05/03 08:58:38;;;;;;;24.45;10.63;;;;;;;-145.69;100.00;52406.75;5095787;28;20285;-81
2023/05/03 09:01:06;;;;;;;19.48;10.55;;;;;;;-145.69;100.00;52396.84;5094438;28;20222;-83
2023/05/03 09:03:33;;;;;;;20.30;11.32;;;;;;;-145.69;100.00;52384.97;5095678;28;20261;-83
2023/05/03 09:06:00;;;;;;;19.15;10.60;;;;;;;-145.69;100.00;52396.84;5095251;28;20281;-83
2023/05/03 09:08:29;;;;;;;21.55;11.30;;;;;;;-145.69;100.00;52422.59;5095251;28;20194;-86
2023/05/03 09:10:56;;;;;;;18.65;10.30;;;;;;;-145.69;100.00;52384.97;5095483;28;20210;-82
2023/05/03 09:13:29;;;;;;;20.23;10.65;;;;;;;-145.69;100.00;52404.78;5095745;28;20202;-83
2023/05/03 09:15:57;;;;;;;20.23;10.13;;;;;;;-145.69;100.00;52390.91;5095229;28;20710;-84
2023/05/03 09:18:25;;;;;;;19.73;9.73;;;;;;;-145.69;100.00;52373.09;5095303;28;20641;-83
2023/05/03 09:20:52;;;;;;;19.02;10.68;;;;;;;-145.69;100.00;52398.84;5094865;28;20222;-83
2023/05/03 09:23:20;;;;;;;20.23;10.27;;;;;;;-145.69;100.00;52422.59;5095561;28;20209;-83
2023/05/03 09:25:51;;;;;;;21.63;10.30;;;;;;;-145.69;100.00;52392.91;5094891;28;20739;-83
2023/05/03 09:28:18;;;;;;;15.32;8.88;;;;;;;-145.69;100.00;52406.75;5095345;28;20657;-84
2023/05/03 09:30:46;;;;;;;16.67;9.52;;;;;;;-145.69;100.00;52361.22;5094606;28;20664;-82
2023/05/03 09:33:19;;;;;;;18.00;9.60;;;;;;;-145.69;100.00;52373.09;5094941;28;20652;-84
2023/05/03 09:35:56;;;;;;;17.00;10.48;;;;;;;-145.69;100.00;52365.16;5094869;28;20202;-82
2023/05/03 09:38:27;;;;;;;16.73;8.57;;;;;;;-145.69;100.00;52418.63;5094499;28;20194;-82
2023/05/03 09:40:55;;;;;;;15.18;8.80;;;;;;;-145.69;100.00;52353.28;5095497;28;20229;-81
2023/05/03 09:43:21;;;;;;;15.63;8.38;;;;;;;-145.69;100.00;52406.75;5094730;28;20288;-84
2023/05/03 09:45:48;;;;;;;17.75;9.68;;;;;;;-145.69;100.00;52357.25;5094537;28;20436;-84
2023/05/03 09:48:16;;;;;;;16.08;8.60;;;;;;;-145.69;100.00;52392.91;5094751;28;20194;-83
2023/05/03 09:50:43;;;;;;;16.98;8.65;;;;;;;-145.69;100.00;52381.00;5094513;28;20280;-84
2023/05/03 09:53:09;;;;;;;25.13;9.10;;;;;;;-145.69;100.00;52361.22;5094728;28;20677;-83
2023/05/03 09:55:37;;;;;;;15.93;9.38;;;;;;;-145.69;100.00;52400.81;5094978;28;20198;-85
2023/05/03 09:58:06;;;;;;;17.17;9.07;;;;;;;-145.69;100.00;52388.94;5095546;28;20289;-82
2023/05/03 10:00:37;;;;;;;16.73;8.75;;;;;;;-145.69;100.00;52363.19;5095296;28;20222;-85
2023/05/03 10:03:07;;;;;;;16.00;9.07;;;;;;;-145.69;100.00;52386.97;5094688;28;20281;-84
2023/05/03 10:05:40;;;;;;;14.35;8.95;;;;;;;-145.69;100.00;52396.84;5094108;28;20225;-83
2023/05/03 10:08:09;;;;;;;15.88;9.50;;;;;;;-145.69;100.00;52384.97;5094862;28;20677;-82
2023/05/03 10:10:36;;;;;;;20.10;9.48;;;;;;;-145.69;100.00;52388.94;5094823;28;20206;-84
2023/05/03 10:13:03;;;;;;;16.85;8.85;;;;;;;-145.69;100.00;52381.00;5090427;28;20199;-81
2023/05/03 10:15:32;;;;;;;15.10;9.40;;;;;;;-145.69;100.00;52361.22;5094181;28;20198;-82
2023/05/03 10:18:02;;;;;;;16.83;9.30;;;;;;;-145.69;100.00;52392.91;5094447;28;20194;-82
2023/05/03 10:20:36;;;;;;;14.85;8.60;;;;;;;-145.69;100.00;52359.22;5094390;28;20202;-82
2023/05/03 10:23:10;;;;;;;11.40;7.00;;;;;;;-145.69;100.00;52349.31;5094257;28;20207;-83
2023/05/03 10:25:38;;;;;;;11.95;7.03;;;;;;;-145.69;100.00;52365.16;5094252;28;20240;-82
2023/05/03 10:28:06;;;;;;;10.20;6.50;;;;;;;-145.69;91.87;52365.16;5093599;28;20244;-79
2023/05/03 10:30:35;;;;;;;9.45;6.43;;;;;;;-145.69;94.19;52349.31;5094295;28;20691;-85
2023/05/03 10:33:28;;;;;;;12.63;7.30;;;;;;;-145.69;96.68;52345.38;5093703;28;20210;-84
2023/05/03 10:35:55;;;;;;;11.30;6.82;;;;;;;-145.69;96.20;52347.34;5093438;28;20209;-82
2023/05/03 10:38:23;;;;;;;10.07;6.50;;;;;;;-145.69;95.37;52347.34;5093627;28;20248;-81
2023/05/03 10:40:51;;;;;;;12.75;6.75;;;;;;;-145.69;93.54;52325.56;5093626;28;20248;-81
2023/05/03 10:43:43;;;;;;;11.55;7.18;;;;;;;-145.69;90.65;52329.53;5093924;28;20202;-80
2023/05/03 10:46:31;;;;;;;14.43;7.72;;;;;;;-145.69;96.83;52333.47;5093459;28;20202;-81
2023/05/03 10:49:25;;;;;;;12.05;7.07;;;;;;;-145.69;94.48;52347.34;5093960;28;20222;-83
2023/05/03 10:51:51;;;;;;;12.45;7.13;;;;;;;-145.69;97.70;52337.44;5094430;28;20194;-83
2023/05/03 10:54:18;;;;;;;9.50;6.10;;;;;;;-145.69;92.37;52349.31;5094460;28;20201;-84
2023/05/03 10:56:49;;;;;;;14.63;7.85;;;;;;;-145.69;88.62;52337.44;5093645;28;20190;-82
2023/05/03 10:59:16;;;;;;;13.68;7.00;;;;;;;-145.69;89.24;52333.47;5094096;28;20201;-83
2023/05/03 11:01:45;;;;;;;16.00;8.07;;;;;;;-145.69;90.81;52323.59;5093432;28;20251;-83